createdAt,value
2023-04-12T00:01:25.658Z,10.39
2023-04-12T00:03:53.802Z,10.35
2023-04-12T00:06:27.115Z,10.32
2023-04-12T00:08:54.353Z,10.37
2023-04-12T00:11:21.952Z,10.42
2023-04-12T00:13:48.709Z,10.39
2023-04-12T00:16:17.346Z,10.38
2023-04-12T00:18:46.082Z,10.36
2023-04-12T00:21:13.006Z,10.35
2023-04-12T00:23:45.450Z,10.32
2023-04-12T00:26:13.372Z,10.32
2023-04-12T00:28:44.429Z,10.38
2023-04-12T00:31:12.585Z,10.42
2023-04-12T00:33:39.969Z,10.38
2023-04-12T00:36:10.045Z,10.34
2023-04-12T00:38:37.150Z,10.30
2023-04-12T00:41:04.063Z,10.28
2023-04-12T00:43:32.349Z,10.24
2023-04-12T00:45:59.309Z,10.19
2023-04-12T00:48:30.330Z,10.24
2023-04-12T00:50:57.536Z,10.28
2023-04-12T00:53:24.411Z,10.22
2023-04-12T00:55:53.978Z,10.16
2023-04-12T00:58:23.858Z,10.09
2023-04-12T01:00:54.080Z,10.00
2023-04-12T01:03:22.871Z,9.92
2023-04-12T01:06:14.379Z,9.96
2023-04-12T01:08:51.834Z,9.98
2023-04-12T01:11:43.491Z,9.91
2023-04-12T01:14:22.433Z,9.84
2023-04-12T01:16:50.905Z,9.78
2023-04-12T01:19:29.299Z,9.75
2023-04-12T01:22:02.128Z,9.81
2023-04-12T01:24:55.411Z,9.80
2023-04-12T01:27:28.054Z,9.70
2023-04-12T01:29:55.919Z,9.61
2023-04-12T01:32:25.870Z,9.54
2023-04-12T01:34:53.682Z,9.56
2023-04-12T01:37:21.134Z,9.57
2023-04-12T01:39:49.125Z,9.51
2023-04-12T01:42:20.065Z,9.43
2023-04-12T01:44:47.094Z,9.36
2023-04-12T01:47:14.878Z,9.39
2023-04-12T01:49:50.575Z,9.44
2023-04-12T01:52:20.210Z,9.41
2023-04-12T01:54:50.358Z,9.42
2023-04-12T01:57:19.670Z,9.49
2023-04-12T01:59:48.363Z,9.51
2023-04-12T02:02:23.063Z,9.53
2023-04-12T02:04:51.320Z,9.55
2023-04-12T02:07:21.260Z,9.60
2023-04-12T02:09:51.638Z,9.63
2023-04-12T02:12:22.300Z,9.66
2023-04-12T02:14:51.924Z,9.64
2023-04-12T02:17:24.784Z,9.64
2023-04-12T02:19:52.709Z,9.67
2023-04-12T02:22:19.414Z,9.64
2023-04-12T02:24:47.175Z,9.69
2023-04-12T02:27:14.370Z,9.70
2023-04-12T02:29:41.700Z,9.71
2023-04-12T02:32:08.938Z,9.71
2023-04-12T02:34:38.071Z,9.69
2023-04-12T02:37:17.481Z,9.70
2023-04-12T02:39:44.332Z,9.66
2023-04-12T02:42:11.320Z,9.64
2023-04-12T02:44:38.739Z,9.61
2023-04-12T02:47:13.895Z,9.57
2023-04-12T02:49:42.848Z,9.54
2023-04-12T02:52:11.200Z,9.51
2023-04-12T02:54:50.291Z,9.50
2023-04-12T02:57:17.644Z,9.47
2023-04-12T02:59:48.222Z,9.43
2023-04-12T03:02:27.814Z,9.41
2023-04-12T03:04:59.001Z,9.43
2023-04-12T03:07:35.580Z,9.42
2023-04-12T03:10:06.301Z,9.42
2023-04-12T03:12:34.365Z,9.38
2023-04-12T03:15:15.964Z,9.35
2023-04-12T03:17:45.725Z,9.37
2023-04-12T03:20:13.331Z,9.40
2023-04-12T03:22:46.519Z,9.39
2023-04-12T03:25:13.398Z,9.40
2023-04-12T03:27:45.988Z,9.41
2023-04-12T03:30:15.510Z,9.37
2023-04-12T03:32:43.961Z,9.39
2023-04-12T03:35:11.374Z,9.41
2023-04-12T03:37:41.330Z,9.40
2023-04-12T03:40:10.314Z,9.40
2023-04-12T03:42:37.724Z,9.40
2023-04-12T03:45:11.690Z,9.39
2023-04-12T03:47:42.705Z,9.41
2023-04-12T03:50:12.091Z,9.41
2023-04-12T03:52:46.492Z,9.39
2023-04-12T03:55:17.606Z,9.36
2023-04-12T03:57:44.914Z,9.33
2023-04-12T04:00:13.180Z,9.31
2023-04-12T04:03:09.986Z,9.30
2023-04-12T04:05:56.119Z,9.31
2023-04-12T04:08:23.854Z,9.29
2023-04-12T04:10:51.755Z,9.25
2023-04-12T04:13:33.238Z,9.23
2023-04-12T04:16:04.542Z,9.23
2023-04-12T04:18:32.148Z,9.23
2023-04-12T04:20:59.514Z,9.20
2023-04-12T04:23:28.513Z,9.16
2023-04-12T04:25:56.075Z,9.12
2023-04-12T04:28:24.792Z,9.11
2023-04-12T04:30:55.255Z,9.09
2023-04-12T04:33:22.791Z,9.09
2023-04-12T04:35:52.119Z,9.08
2023-04-12T04:38:26.718Z,9.10
2023-04-12T04:41:02.506Z,9.07
2023-04-12T04:43:39.466Z,9.08
2023-04-12T04:46:10.250Z,9.11
2023-04-12T04:48:40.271Z,9.13
2023-04-12T04:51:10.948Z,9.16
2023-04-12T04:53:40.234Z,9.21
2023-04-12T04:56:08.803Z,9.21
2023-04-12T04:58:41.357Z,9.28
2023-04-12T05:02:56.907Z,9.36
2023-04-12T05:05:30.107Z,9.37
2023-04-12T05:08:04.943Z,9.40
2023-04-12T05:10:38.993Z,9.42
2023-04-12T05:13:06.115Z,9.47
2023-04-12T05:15:34.439Z,9.49
2023-04-12T05:18:07.911Z,9.48
2023-04-12T05:20:38.885Z,9.51
2023-04-12T05:23:05.774Z,9.56
2023-04-12T05:25:33.743Z,9.59
2023-04-12T05:28:14.727Z,9.62
2023-04-12T05:30:43.297Z,9.61
2023-04-12T05:33:12.466Z,9.60
2023-04-12T05:35:44.837Z,9.58
2023-04-12T05:38:11.696Z,9.59
2023-04-12T05:40:41.533Z,9.56
2023-04-12T05:43:12.254Z,9.56
2023-04-12T05:45:41.521Z,9.55
2023-04-12T05:48:08.997Z,9.50
2023-04-12T05:50:35.807Z,9.47
2023-04-12T05:53:03.055Z,9.47
2023-04-12T05:55:31.842Z,9.47
2023-04-12T05:57:59.017Z,9.51
2023-04-12T06:00:27.339Z,9.54
2023-04-12T06:02:54.400Z,9.54
2023-04-12T06:05:22.290Z,9.52
2023-04-12T06:07:50.012Z,9.50
2023-04-12T06:10:17.665Z,9.53
2023-04-12T06:12:48.308Z,9.58
2023-04-12T06:15:15.729Z,9.58
2023-04-12T06:17:43.026Z,9.53
2023-04-12T06:20:14.085Z,9.46
2023-04-12T06:22:41.096Z,9.42
2023-04-12T06:25:08.638Z,9.40
2023-04-12T06:27:35.725Z,9.40
2023-04-12T06:30:02.732Z,9.41
2023-04-12T06:32:33.589Z,9.41
2023-04-12T06:35:05.616Z,9.36
2023-04-12T06:37:32.701Z,9.33
2023-04-12T06:39:59.380Z,9.33
2023-04-12T06:42:26.299Z,9.35
2023-04-12T06:44:54.857Z,9.37
2023-04-12T06:47:24.986Z,9.36
2023-04-12T06:49:55.578Z,9.35
2023-04-12T06:52:26.260Z,9.37
2023-04-12T06:54:53.640Z,9.37
2023-04-12T06:57:20.540Z,9.41
2023-04-12T06:59:48.223Z,9.41
2023-04-12T07:02:15.800Z,9.40
2023-04-12T07:04:42.537Z,9.40
2023-04-12T07:07:09.811Z,9.39
2023-04-12T07:09:38.070Z,9.36
2023-04-12T07:12:05.247Z,9.36
2023-04-12T07:14:33.942Z,9.37
2023-04-12T07:17:01.363Z,9.36
2023-04-12T07:19:30.512Z,9.39
2023-04-12T07:21:58.652Z,9.40
2023-04-12T07:24:25.529Z,9.41
2023-04-12T07:26:53.906Z,9.46
2023-04-12T07:29:20.639Z,9.50
2023-04-12T07:31:47.958Z,9.49
2023-04-12T07:34:15.094Z,9.49
2023-04-12T07:36:44.400Z,9.47
2023-04-12T07:39:12.434Z,9.48
2023-04-12T07:41:40.418Z,9.51
2023-04-12T07:44:07.782Z,9.56
2023-04-12T07:46:34.726Z,9.59
2023-04-12T07:49:01.597Z,9.60
2023-04-12T07:51:28.852Z,9.62
2023-04-12T07:53:58.977Z,9.65
2023-04-12T07:56:27.084Z,9.69
2023-04-12T07:58:53.908Z,9.70
2023-04-12T08:01:22.555Z,9.73
2023-04-12T08:03:51.186Z,9.74
2023-04-12T08:06:18.286Z,9.74
2023-04-12T08:08:45.620Z,9.73
2023-04-12T08:11:12.660Z,9.72
2023-04-12T08:13:39.426Z,9.71
2023-04-12T08:16:08.641Z,9.75
2023-04-12T08:18:37.157Z,9.79
2023-04-12T08:21:04.724Z,9.82
2023-04-12T08:23:39.555Z,9.83
2023-04-12T08:26:06.611Z,9.82
2023-04-12T08:28:33.558Z,9.83
2023-04-12T08:31:02.299Z,9.89
2023-04-12T08:33:29.338Z,9.94
2023-04-12T08:35:57.465Z,10.02
2023-04-12T08:38:37.635Z,10.02
2023-04-12T08:41:11.703Z,10.01
2023-04-12T08:43:42.109Z,9.99
2023-04-12T08:46:09.786Z,10.02
2023-04-12T08:48:37.258Z,10.06
2023-04-12T08:51:04.753Z,10.11
2023-04-12T08:53:33.157Z,10.15
2023-04-12T08:56:11.138Z,10.21
2023-04-12T08:58:40.566Z,10.23
2023-04-12T09:01:13.582Z,10.28
2023-04-12T09:03:44.710Z,10.29
2023-04-12T09:06:12.788Z,10.29
2023-04-12T09:08:53.428Z,10.24
2023-04-12T09:11:30.481Z,10.25
2023-04-12T09:13:58.994Z,10.27
2023-04-12T09:16:40.589Z,10.30
2023-04-12T09:19:11.946Z,10.33
2023-04-12T09:21:52.109Z,10.36
2023-04-12T09:24:18.891Z,10.36
2023-04-12T09:26:45.856Z,10.32
2023-04-12T09:29:22.614Z,10.33
2023-04-12T09:32:02.844Z,10.35
2023-04-12T09:34:31.008Z,10.41
2023-04-12T09:36:58.130Z,10.45
2023-04-12T09:39:34.487Z,10.47
2023-04-12T09:42:21.478Z,10.47
2023-04-12T09:44:53.957Z,10.46
2023-04-12T09:47:20.929Z,10.46
2023-04-12T09:49:47.673Z,10.48
2023-04-12T09:52:16.346Z,10.50
2023-04-12T09:54:44.680Z,10.46
2023-04-12T09:57:12.252Z,10.43
2023-04-12T09:59:41.609Z,10.38
2023-04-12T10:02:22.222Z,10.38
2023-04-12T10:04:50.129Z,10.39
2023-04-12T10:07:17.335Z,10.37
2023-04-12T10:09:44.363Z,10.37
2023-04-12T10:12:11.155Z,10.43
2023-04-12T10:14:38.050Z,10.48
2023-04-12T10:17:08.186Z,10.53
2023-04-12T10:19:35.820Z,10.59
2023-04-12T10:22:02.907Z,10.65
2023-04-12T10:24:31.503Z,10.66
2023-04-12T10:27:02.530Z,10.62
2023-04-12T10:29:34.168Z,10.57
2023-04-12T10:32:23.734Z,10.57
2023-04-12T10:34:56.005Z,10.60
2023-04-12T10:37:54.939Z,10.63
2023-04-12T10:40:22.152Z,10.67
2023-04-12T10:42:49.193Z,10.67
2023-04-12T10:45:34.836Z,10.63
2023-04-12T10:48:03.243Z,10.62
2023-04-12T10:50:31.546Z,10.62
2023-04-12T10:53:20.259Z,10.62
2023-04-12T10:55:47.852Z,10.61
2023-04-12T10:58:49.183Z,10.61
2023-04-12T11:01:19.182Z,10.61
2023-04-12T11:04:09.199Z,10.62
2023-04-12T11:06:40.585Z,10.60
2023-04-12T11:09:27.927Z,10.56
2023-04-12T11:12:11.411Z,10.53
2023-04-12T11:14:48.798Z,10.53
2023-04-12T11:17:21.708Z,10.54
2023-04-12T11:19:53.609Z,10.53
2023-04-12T11:22:23.805Z,10.50
2023-04-12T11:25:00.836Z,10.48
2023-04-12T11:27:29.576Z,10.48
2023-04-12T11:29:59.788Z,10.48
2023-04-12T11:32:29.047Z,10.48
2023-04-12T11:34:57.133Z,10.50
2023-04-12T11:37:26.211Z,10.55
2023-04-12T11:39:55.127Z,10.56
2023-04-12T11:42:28.220Z,10.60
2023-04-12T11:45:10.218Z,10.62
2023-04-12T11:47:45.542Z,10.67
2023-04-12T11:50:12.829Z,10.69
2023-04-12T11:52:40.708Z,10.69
2023-04-12T11:55:10.695Z,10.67
2023-04-12T11:57:38.310Z,10.67
2023-04-12T12:00:07.348Z,10.68
2023-04-12T12:02:55.954Z,10.68
2023-04-12T12:05:36.150Z,10.67
2023-04-12T12:08:07.082Z,10.64
2023-04-12T12:10:55.511Z,10.62
2023-04-12T12:13:27.601Z,10.60
2023-04-12T12:15:54.870Z,10.60
2023-04-12T12:18:28.427Z,10.63
2023-04-12T12:20:55.795Z,10.65
2023-04-12T12:23:32.591Z,10.69
2023-04-12T12:26:17.120Z,10.75
2023-04-12T12:28:49.833Z,10.81
2023-04-12T12:31:22.013Z,10.86
2023-04-12T12:33:56.462Z,10.94
2023-04-12T12:36:33.375Z,11.03
2023-04-12T12:39:10.209Z,11.08
2023-04-12T12:41:37.149Z,11.12
2023-04-12T12:44:06.717Z,11.19
2023-04-12T12:46:52.082Z,11.26
2023-04-12T12:49:23.853Z,11.30
2023-04-12T12:51:54.453Z,11.33
2023-04-12T12:54:38.790Z,11.34
2023-04-12T12:57:07.719Z,11.37
2023-04-12T12:59:36.207Z,11.39
2023-04-12T13:02:05.128Z,11.37
2023-04-12T13:04:33.777Z,11.37
2023-04-12T13:07:01.228Z,11.40
2023-04-12T13:09:28.363Z,11.41
2023-04-12T13:12:01.748Z,11.39
2023-04-12T13:14:30.475Z,11.37
2023-04-12T13:16:57.452Z,11.35
2023-04-12T13:19:34.195Z,11.37
2023-04-12T13:22:01.198Z,11.41
2023-04-12T13:24:28.345Z,11.46
2023-04-12T13:26:57.717Z,11.49
2023-04-12T13:29:24.766Z,11.53
2023-04-12T13:31:52.647Z,11.51
2023-04-12T13:34:19.898Z,11.47
2023-04-12T13:36:47.129Z,11.46
2023-04-12T13:39:16.662Z,11.47
2023-04-12T13:41:43.951Z,11.46
2023-04-12T13:44:11.008Z,11.45
2023-04-12T13:46:41.432Z,11.45
2023-04-12T13:49:08.709Z,11.45
2023-04-12T13:51:35.839Z,11.45
2023-04-12T13:54:03.642Z,11.46
2023-04-12T13:56:31.082Z,11.48
2023-04-12T13:58:58.696Z,11.44
2023-04-12T14:01:27.999Z,11.39
2023-04-12T14:03:56.961Z,11.37
2023-04-12T14:06:24.396Z,11.37
2023-04-12T14:08:51.620Z,11.36
2023-04-12T14:11:19.345Z,11.39
2023-04-12T14:13:47.123Z,11.42
2023-04-12T14:16:14.059Z,11.44
2023-04-12T14:18:41.477Z,11.41
2023-04-12T14:21:08.968Z,11.39
2023-04-12T14:23:36.424Z,11.37
2023-04-12T14:26:03.362Z,11.40
2023-04-12T14:28:31.167Z,11.43
2023-04-12T14:31:02.500Z,11.45
2023-04-12T14:33:31.462Z,11.48
2023-04-12T14:36:00.703Z,11.51
2023-04-12T14:38:30.649Z,11.52
2023-04-12T14:40:58.140Z,11.55
2023-04-12T14:43:25.169Z,11.65
2023-04-12T14:45:55.019Z,11.72
2023-04-12T14:48:22.737Z,11.73
2023-04-12T14:50:49.745Z,11.77
2023-04-12T14:53:19.139Z,11.84
2023-04-12T14:55:46.440Z,11.90
2023-04-12T14:58:14.186Z,11.93
2023-04-12T15:00:42.335Z,11.98
2023-04-12T15:03:09.816Z,12.04
2023-04-12T15:05:55.809Z,12.09
2023-04-12T15:08:28.510Z,12.13
2023-04-12T15:10:55.718Z,12.17
2023-04-12T15:13:26.758Z,12.22
2023-04-12T15:15:58.969Z,12.23
2023-04-12T15:18:27.064Z,12.25
2023-04-12T15:20:54.681Z,12.24
2023-04-12T15:23:23.071Z,12.26
2023-04-12T15:25:55.656Z,12.27
2023-04-12T15:28:23.140Z,12.25
2023-04-12T15:30:53.127Z,12.24
2023-04-12T15:33:21.014Z,12.24
2023-04-12T15:35:48.685Z,12.26
2023-04-12T15:38:20.846Z,12.32
2023-04-12T15:41:03.626Z,12.41
2023-04-12T15:43:30.863Z,12.46
2023-04-12T15:45:59.463Z,12.49
2023-04-12T15:48:27.031Z,12.53
2023-04-12T15:50:55.954Z,12.54
2023-04-12T15:53:33.630Z,12.53
2023-04-12T15:56:01.658Z,12.48
2023-04-12T15:58:28.736Z,12.48
2023-04-12T16:00:55.573Z,12.49
2023-04-12T16:03:25.635Z,12.53
2023-04-12T16:05:53.928Z,12.55
2023-04-12T16:08:23.269Z,12.58
2023-04-12T16:10:50.840Z,12.58
2023-04-12T16:13:18.947Z,12.60
2023-04-12T16:15:48.651Z,12.60
2023-04-12T16:18:17.306Z,12.60
2023-04-12T16:20:48.409Z,12.61
2023-04-12T16:23:16.303Z,12.63
2023-04-12T16:25:45.483Z,12.65
2023-04-12T16:28:13.915Z,12.65
2023-04-12T16:30:41.437Z,12.64
2023-04-12T16:33:16.908Z,12.62
2023-04-12T16:35:43.978Z,12.61
2023-04-12T16:38:12.597Z,12.61
2023-04-12T16:40:40.403Z,12.57
2023-04-12T16:43:08.554Z,12.49
2023-04-12T16:45:35.476Z,12.43
2023-04-12T16:48:03.326Z,12.40
2023-04-12T16:50:30.429Z,12.40
2023-04-12T16:53:00.997Z,12.37
2023-04-12T16:55:29.473Z,12.33
2023-04-12T16:57:57.909Z,12.28
2023-04-12T17:00:28.549Z,12.26
2023-04-12T17:02:56.524Z,12.23
2023-04-12T17:05:24.298Z,12.19
2023-04-12T17:07:53.466Z,12.19
2023-04-12T17:10:22.451Z,12.19
2023-04-12T17:12:51.786Z,12.14
2023-04-12T17:15:24.644Z,12.08
2023-04-12T17:20:36.686Z,12.10
2023-04-12T17:23:04.745Z,12.07
2023-04-12T17:25:35.789Z,12.07
2023-04-12T17:28:03.670Z,12.07
2023-04-12T17:30:33.773Z,12.05
2023-04-12T17:33:03.604Z,12.03
2023-04-12T17:35:31.187Z,12.01
2023-04-12T17:37:58.490Z,11.98
2023-04-12T17:40:25.563Z,11.95
2023-04-12T17:42:52.966Z,11.90
2023-04-12T17:45:21.249Z,11.87
2023-04-12T17:47:49.639Z,11.84
2023-04-12T17:50:17.975Z,11.80
2023-04-12T17:52:45.506Z,11.78
2023-04-12T17:55:14.008Z,11.76
2023-04-12T17:57:41.321Z,11.76
2023-04-12T18:00:18.632Z,11.77
2023-04-12T18:02:46.159Z,11.75
2023-04-12T18:05:17.415Z,11.70
2023-04-12T18:07:46.548Z,11.68
2023-04-12T18:10:19.647Z,11.63
2023-04-12T18:12:48.561Z,11.56
2023-04-12T18:15:16.195Z,11.49
2023-04-12T18:17:44.529Z,11.46
2023-04-12T18:20:12.220Z,11.43
2023-04-12T18:22:40.140Z,11.39
2023-04-12T18:25:11.342Z,11.36
2023-04-12T18:28:12.311Z,11.31
2023-04-12T18:30:43.029Z,11.22
2023-04-12T18:33:10.088Z,11.13
2023-04-12T18:35:39.459Z,11.06
2023-04-12T18:38:07.144Z,11.00
2023-04-12T18:40:38.058Z,10.91
2023-04-12T18:43:05.742Z,10.80
2023-04-12T18:45:37.429Z,10.73
2023-04-12T18:48:09.124Z,10.67
2023-04-12T18:50:40.051Z,10.62
2023-04-12T18:53:09.057Z,10.56
2023-04-12T18:55:37.255Z,10.49
2023-04-12T18:58:05.228Z,10.41
2023-04-12T19:00:33.222Z,10.33
2023-04-12T19:03:02.489Z,10.26
2023-04-12T19:05:29.843Z,10.19
2023-04-12T19:07:57.697Z,10.13
2023-04-12T19:10:27.605Z,10.10
2023-04-12T19:13:00.194Z,10.10
2023-04-12T19:15:28.857Z,10.10
2023-04-12T19:17:58.341Z,10.10
2023-04-12T19:20:27.354Z,10.11
2023-04-12T19:22:54.585Z,10.10
2023-04-12T19:25:21.649Z,10.04
2023-04-12T19:27:49.272Z,10.01
2023-04-12T19:30:16.678Z,9.97
2023-04-12T19:32:51.143Z,9.92
2023-04-12T19:35:18.357Z,9.90
2023-04-12T19:37:46.493Z,9.87
2023-04-12T19:40:14.062Z,9.87
2023-04-12T19:42:41.862Z,9.86
2023-04-12T19:45:09.275Z,9.86
2023-04-12T19:47:36.312Z,9.87
2023-04-12T19:50:08.310Z,9.88
2023-04-12T19:52:35.676Z,9.89
2023-04-12T19:55:02.633Z,9.88
2023-04-12T19:57:32.522Z,9.86
2023-04-12T20:00:01.056Z,9.86
2023-04-12T20:02:29.746Z,9.89
2023-04-12T20:04:57.123Z,9.92
2023-04-12T20:07:24.032Z,9.93
2023-04-12T20:09:51.222Z,9.93
2023-04-12T20:12:19.152Z,9.94
2023-04-12T20:14:47.551Z,9.95
2023-04-12T20:17:14.690Z,9.97
2023-04-12T20:19:41.952Z,9.97
2023-04-12T20:22:09.008Z,9.97
2023-04-12T20:24:37.095Z,9.98
2023-04-12T20:27:06.535Z,10.00
2023-04-12T20:29:35.452Z,9.99
2023-04-12T20:32:03.601Z,9.99
2023-04-12T20:34:31.743Z,10.00
2023-04-12T20:36:59.417Z,10.01
2023-04-12T20:39:29.015Z,10.03
2023-04-12T20:42:00.402Z,10.05
2023-04-12T20:44:27.312Z,10.07
2023-04-12T20:46:57.050Z,10.07
2023-04-12T20:49:27.070Z,10.09
2023-04-12T20:51:58.090Z,10.11
2023-04-12T20:54:25.966Z,10.12
2023-04-12T20:56:53.541Z,10.13
2023-04-12T20:59:23.440Z,10.16
2023-04-12T21:01:51.459Z,10.17
2023-04-12T21:04:19.585Z,10.18
2023-04-12T21:06:50.138Z,10.19
2023-04-12T21:09:16.836Z,10.19
2023-04-12T21:11:43.954Z,10.23
2023-04-12T21:14:11.210Z,10.27
2023-04-12T21:16:41.062Z,10.28
2023-04-12T21:19:08.511Z,10.28
2023-04-12T21:21:36.080Z,10.31
2023-04-12T21:24:03.340Z,10.32
2023-04-12T21:26:31.174Z,10.31
2023-04-12T21:28:59.359Z,10.30
2023-04-12T21:31:28.522Z,10.32
2023-04-12T21:33:58.792Z,10.37
2023-04-12T21:36:31.029Z,10.39
2023-04-12T21:38:58.584Z,10.42
2023-04-12T21:41:26.689Z,10.46
2023-04-12T21:43:55.500Z,10.51
2023-04-12T21:46:26.726Z,10.52
2023-04-12T21:48:54.125Z,10.52
2023-04-12T21:51:22.989Z,10.54
2023-04-12T21:53:51.082Z,10.56
2023-04-12T21:56:18.346Z,10.60
2023-04-12T21:58:45.777Z,10.63
2023-04-12T22:01:13.757Z,10.65
2023-04-12T22:03:42.961Z,10.67
2023-04-12T22:06:11.366Z,10.72
2023-04-12T22:08:43.398Z,10.74
2023-04-12T22:11:11.516Z,10.78
2023-04-12T22:13:41.406Z,10.85
2023-04-12T22:16:13.358Z,10.94
2023-04-12T22:18:40.624Z,11.02
2023-04-12T22:21:10.620Z,11.02
2023-04-12T22:23:40.088Z,11.02
2023-04-12T22:26:07.744Z,11.07
2023-04-12T22:28:38.177Z,11.10
2023-04-12T22:31:07.782Z,11.18
2023-04-12T22:33:39.614Z,11.23
2023-04-12T22:36:07.773Z,11.24
2023-04-12T22:38:37.248Z,11.25
2023-04-12T22:41:04.653Z,11.24
2023-04-12T22:43:42.196Z,11.24
2023-04-12T22:46:15.449Z,11.28
2023-04-12T22:48:49.342Z,11.32
2023-04-12T22:51:19.193Z,11.36
2023-04-12T22:53:47.183Z,11.38
2023-04-12T22:56:14.281Z,11.40
2023-04-12T22:58:43.591Z,11.38
2023-04-12T23:01:11.022Z,11.36
2023-04-12T23:03:42.565Z,11.31
2023-04-12T23:06:14.098Z,11.31
2023-04-12T23:08:43.023Z,11.33
2023-04-12T23:11:10.969Z,11.28
2023-04-12T23:13:37.941Z,11.19
2023-04-12T23:16:11.366Z,11.13
2023-04-12T23:18:39.332Z,11.10
2023-04-12T23:21:06.406Z,11.10
2023-04-12T23:23:38.913Z,11.10
2023-04-12T23:26:05.669Z,11.08
2023-04-12T23:28:32.534Z,11.09
2023-04-12T23:31:02.636Z,11.13
2023-04-12T23:33:29.631Z,11.13
2023-04-12T23:35:56.671Z,11.15
2023-04-12T23:38:33.060Z,11.16
2023-04-12T23:41:01.723Z,11.16
2023-04-12T23:43:29.321Z,11.14
2023-04-12T23:45:57.298Z,11.14
2023-04-12T23:48:25.591Z,11.17
2023-04-12T23:50:52.650Z,11.18
2023-04-12T23:53:22.145Z,11.17
2023-04-12T23:55:51.356Z,11.15
2023-04-12T23:58:19.027Z,11.14
